Time;durP1;ratioP1;P1;durP2;ratioP2;P2;SDS_P1;SDS_P2;PMS_P1;PMS_P2;Temp;Humidity;BMP_temperature;BMP_pressure;BME280_temperature;BME280_humidity;BME280_pressure;Samples;Min_cycle;Max_cycle;Signal;HPM_P1;HPM_P2
2021/06/29 00:01:40;;;;;;;4.20;2.38;;;;;;;;;;5032143;28;20025;-43
2021/06/29 00:04:06;;;;;;;2.35;2.03;;;;;;;;;;5032035;28;20025;-43
2021/06/29 00:06:32;;;;;;;6.53;2.55;;;;;;;;;;5031993;28;20056;-44
2021/06/29 00:08:58;;;;;;;5.78;2.97;;;;;;;;;;5031876;28;20048;-45
2021/06/29 00:11:24;;;;;;;4.40;2.55;;;;;;;;;;5031992;28;20462;-44
2021/06/29 00:13:50;;;;;;;4.10;2.67;;;;;;;;;;5032398;28;20479;-43
2021/06/29 00:16:16;;;;;;;4.22;2.80;;;;;;;;;;5035561;28;20095;-44
2021/06/29 00:18:42;;;;;;;4.32;2.85;;;;;;;;;;5035443;28;20022;-43
2021/06/29 00:21:09;;;;;;;4.82;2.50;;;;;;;;;;5035444;28;20033;-44
2021/06/29 00:23:38;;;;;;;6.00;3.70;;;;;;;;;;5035450;28;20025;-44
2021/06/29 00:26:05;;;;;;;6.70;3.17;;;;;;;;;;5035135;28;20029;-42
2021/06/29 00:28:31;;;;;;;4.40;3.17;;;;;;;;;;5035312;28;20097;-44
2021/06/29 00:30:58;;;;;;;3.60;2.58;;;;;;;;;;5035167;28;20116;-44
2021/06/29 00:33:24;;;;;;;5.65;2.95;;;;;;;;;;5035284;28;20036;-44
2021/06/29 00:35:50;;;;;;;6.22;2.55;;;;;;;;;;5035210;28;20021;-45
2021/06/29 00:38:16;;;;;;;6.38;3.05;;;;;;;;;;5035083;28;20036;-44
2021/06/29 00:40:42;;;;;;;6.78;3.03;;;;;;;;;;5035006;28;20107;-44
2021/06/29 00:43:08;;;;;;;7.13;2.90;;;;;;;;;;5034835;28;20061;-45
2021/06/29 00:45:34;;;;;;;5.38;2.92;;;;;;;;;;5035147;28;20048;-40
2021/06/29 00:48:00;;;;;;;8.13;3.78;;;;;;;;;;5034991;28;20030;-44
2021/06/29 00:50:26;;;;;;;4.72;2.85;;;;;;;;;;5034899;28;20022;-44
2021/06/29 00:52:52;;;;;;;5.63;2.95;;;;;;;;;;5034942;28;20025;-44
2021/06/29 00:55:19;;;;;;;5.78;3.22;;;;;;;;;;5033488;28;20025;-44
2021/06/29 00:57:48;;;;;;;5.80;3.30;;;;;;;;;;5034766;28;20144;-44
2021/06/29 01:00:15;;;;;;;3.58;2.80;;;;;;;;;;5034855;28;20022;-44
2021/06/29 01:02:41;;;;;;;8.20;3.42;;;;;;;;;;5034981;28;20037;-44
2021/06/29 01:05:07;;;;;;;8.60;3.50;;;;;;;;;;5035268;28;20029;-44
2021/06/29 01:07:34;;;;;;;8.23;4.15;;;;;;;;;;5035041;28;20036;-44
2021/06/29 01:10:02;;;;;;;7.95;3.20;;;;;;;;;;5035113;28;20545;-41
2021/06/29 01:12:28;;;;;;;3.40;2.67;;;;;;;;;;5035057;28;20438;-45
2021/06/29 01:14:54;;;;;;;5.07;3.20;;;;;;;;;;5034914;28;20049;-44
2021/06/29 01:17:22;;;;;;;8.88;3.95;;;;;;;;;;5035052;28;20032;-45
2021/06/29 01:19:50;;;;;;;4.20;2.97;;;;;;;;;;5035037;28;20033;-44
2021/06/29 01:22:17;;;;;;;4.63;3.30;;;;;;;;;;5035055;28;20037;-43
2021/06/29 01:24:48;;;;;;;6.63;3.80;;;;;;;;;;5034770;28;20104;-44
2021/06/29 01:32:21;;;;;;;4.30;3.03;;;;;;;;;;5034866;28;20474;-43
2021/06/29 01:34:48;;;;;;;7.53;3.45;;;;;;;;;;5034643;28;20033;-43
2021/06/29 01:37:15;;;;;;;6.10;3.05;;;;;;;;;;5034697;28;20363;-45
2021/06/29 01:39:51;;;;;;;7.53;3.80;;;;;;;;;;5034593;28;20079;-44
2021/06/29 01:42:17;;;;;;;5.40;3.17;;;;;;;;;;5034423;28;20029;-44
2021/06/29 01:44:43;;;;;;;9.93;7.13;;;;;;;;;;5034399;28;20120;-44
2021/06/29 01:47:12;;;;;;;7.05;3.30;;;;;;;;;;5034441;28;20076;-44
2021/06/29 01:49:38;;;;;;;7.68;5.72;;;;;;;;;;5034456;28;20025;-44
2021/06/29 01:52:04;;;;;;;13.38;8.05;;;;;;;;;;5034346;28;20057;-44
2021/06/29 01:54:31;;;;;;;16.52;10.05;;;;;;;;;;5034237;28;20130;-43
2021/06/29 01:56:57;;;;;;;15.15;5.72;;;;;;;;;;5034194;28;20017;-44
2021/06/29 01:59:23;;;;;;;7.10;3.72;;;;;;;;;;5034223;28;20148;-44
2021/06/29 02:01:49;;;;;;;6.20;4.38;;;;;;;;;;5034550;28;20057;-43
2021/06/29 02:04:15;;;;;;;7.70;3.60;;;;;;;;;;5034253;28;20021;-45
2021/06/29 02:06:42;;;;;;;9.60;3.90;;;;;;;;;;5034218;28;20075;-44
2021/06/29 02:09:09;;;;;;;6.80;3.88;;;;;;;;;;5034036;28;20438;-44
2021/06/29 02:11:36;;;;;;;7.57;5.05;;;;;;;;;;5033974;28;20022;-44
2021/06/29 02:14:03;;;;;;;5.78;3.90;;;;;;;;;;5033778;28;20049;-43
2021/06/29 02:16:29;;;;;;;6.07;3.70;;;;;;;;;;5033927;28;20458;-44
2021/06/29 02:18:55;;;;;;;6.55;4.15;;;;;;;;;;5033876;28;20030;-43
2021/06/29 02:21:21;;;;;;;6.28;3.90;;;;;;;;;;5034039;28;20079;-44
2021/06/29 02:23:47;;;;;;;10.63;3.97;;;;;;;;;;5033794;28;20036;-43
2021/06/29 02:26:13;;;;;;;8.30;4.30;;;;;;;;;;5033912;28;20036;-42
2021/06/29 02:28:39;;;;;;;9.45;3.88;;;;;;;;;;5033814;28;20428;-44
2021/06/29 02:31:05;;;;;;;5.72;4.03;;;;;;;;;;5033831;28;20033;-43
2021/06/29 02:33:31;;;;;;;6.18;3.88;;;;;;;;;;5033996;28;20127;-45
2021/06/29 02:35:57;;;;;;;8.90;3.92;;;;;;;;;;5033893;28;20440;-44
2021/06/29 02:38:26;;;;;;;5.72;3.78;;;;;;;;;;5033399;28;20030;-44
2021/06/29 02:40:52;;;;;;;7.72;3.92;;;;;;;;;;5033534;28;20032;-44
2021/06/29 02:43:18;;;;;;;5.80;4.13;;;;;;;;;;5033552;28;20043;-44
2021/06/29 02:45:45;;;;;;;10.50;4.32;;;;;;;;;;5033561;28;20026;-45
2021/06/29 02:48:11;;;;;;;4.80;3.78;;;;;;;;;;5033415;28;20033;-44
2021/06/29 02:50:38;;;;;;;5.85;4.38;;;;;;;;;;5033449;28;20484;-44
2021/06/29 02:53:04;;;;;;;6.15;3.90;;;;;;;;;;5033418;28;20068;-44
2021/06/29 02:55:30;;;;;;;6.50;3.78;;;;;;;;;;5033509;28;20099;-44
2021/06/29 02:57:56;;;;;;;9.70;3.97;;;;;;;;;;5033362;28;20121;-43
2021/06/29 03:00:23;;;;;;;6.50;3.58;;;;;;;;;;5033330;28;20049;-43
2021/06/29 03:02:49;;;;;;;4.53;3.65;;;;;;;;;;5033752;28;20104;-43
2021/06/29 03:05:16;;;;;;;7.63;3.75;;;;;;;;;;5033190;28;20027;-43
2021/06/29 03:07:42;;;;;;;4.93;3.63;;;;;;;;;;5033167;28;20407;-43
2021/06/29 03:10:09;;;;;;;6.32;3.65;;;;;;;;;;5033242;28;20088;-43
2021/06/29 03:12:35;;;;;;;6.18;3.92;;;;;;;;;;5033023;28;20091;-40
2021/06/29 03:15:02;;;;;;;5.72;3.70;;;;;;;;;;5033018;28;20099;-43
2021/06/29 03:17:28;;;;;;;6.88;3.65;;;;;;;;;;5033107;28;20022;-44
2021/06/29 03:19:55;;;;;;;4.70;3.50;;;;;;;;;;5033182;28;20025;-43
2021/06/29 03:22:21;;;;;;;4.72;3.42;;;;;;;;;;5033540;28;20061;-42
2021/06/29 03:24:48;;;;;;;6.10;3.78;;;;;;;;;;5033017;28;20049;-43
2021/06/29 03:27:14;;;;;;;6.38;3.80;;;;;;;;;;5033282;28;20038;-43
2021/06/29 03:29:40;;;;;;;6.57;3.67;;;;;;;;;;5032912;28;20108;-39
2021/06/29 03:32:07;;;;;;;9.02;3.53;;;;;;;;;;5033251;28;20068;-40
2021/06/29 03:34:34;;;;;;;5.93;3.75;;;;;;;;;;5033008;28;20532;-40
2021/06/29 03:37:03;;;;;;;7.57;3.45;;;;;;;;;;5033142;28;20104;-41
2021/06/29 03:39:30;;;;;;;3.95;3.30;;;;;;;;;;5032853;28;20017;-41
2021/06/29 03:41:56;;;;;;;6.57;3.70;;;;;;;;;;5032934;28;20037;-41
2021/06/29 03:44:22;;;;;;;4.40;3.13;;;;;;;;;;5032864;28;20030;-42
2021/06/29 03:46:48;;;;;;;5.07;3.58;;;;;;;;;;5033051;28;20025;-44
2021/06/29 03:49:14;;;;;;;8.18;3.55;;;;;;;;;;5034128;28;20079;-43
2021/06/29 03:51:40;;;;;;;6.43;3.42;;;;;;;;;;5036813;28;20025;-43
2021/06/29 03:54:06;;;;;;;5.60;3.53;;;;;;;;;;5036682;28;20029;-43
2021/06/29 03:56:33;;;;;;;7.18;3.50;;;;;;;;;;5036591;28;20022;-43
2021/06/29 03:59:00;;;;;;;5.43;3.25;;;;;;;;;;5036541;28;20382;-40
2021/06/29 04:01:26;;;;;;;5.97;3.85;;;;;;;;;;5036629;28;20101;-42
2021/06/29 04:03:56;;;;;;;7.45;3.55;;;;;;;;;;5036461;28;20111;-44
2021/06/29 04:06:23;;;;;;;4.60;3.67;;;;;;;;;;5036645;28;20022;-43
2021/06/29 04:08:50;;;;;;;4.85;3.33;;;;;;;;;;5036239;28;20033;-42
2021/06/29 04:11:16;;;;;;;9.85;3.55;;;;;;;;;;5036474;28;20018;-41
2021/06/29 04:13:42;;;;;;;6.95;3.40;;;;;;;;;;5036087;28;20060;-42
2021/06/29 04:16:08;;;;;;;4.18;2.90;;;;;;;;;;5036249;28;20032;-43
2021/06/29 04:18:34;;;;;;;6.22;2.95;;;;;;;;;;5036182;28;20036;-42
2021/06/29 04:21:02;;;;;;;5.57;3.03;;;;;;;;;;5036087;28;20079;-42
2021/06/29 04:23:28;;;;;;;4.68;2.90;;;;;;;;;;5036019;28;20037;-41
2021/06/29 04:25:54;;;;;;;7.10;3.25;;;;;;;;;;5036056;28;20559;-42
2021/06/29 04:28:21;;;;;;;5.43;3.47;;;;;;;;;;5035874;28;20117;-41
2021/06/29 04:30:47;;;;;;;5.25;3.45;;;;;;;;;;5035939;28;20023;-43
2021/06/29 04:33:13;;;;;;;6.65;3.65;;;;;;;;;;5035884;28;20099;-43
2021/06/29 04:35:39;;;;;;;5.57;3.42;;;;;;;;;;5035912;28;20072;-41
2021/06/29 04:38:05;;;;;;;4.93;3.60;;;;;;;;;;5035686;28;20071;-43
2021/06/29 04:40:31;;;;;;;6.47;3.42;;;;;;;;;;5035843;28;20470;-43
2021/06/29 04:42:57;;;;;;;4.30;3.33;;;;;;;;;;5035801;28;20248;-44
2021/06/29 04:45:26;;;;;;;5.53;3.22;;;;;;;;;;5035940;28;20025;-43
2021/06/29 04:47:54;;;;;;;8.48;4.30;;;;;;;;;;5035723;28;20738;-44
2021/06/29 04:50:20;;;;;;;4.88;3.38;;;;;;;;;;5035721;28;20026;-44
2021/06/29 04:52:47;;;;;;;5.80;3.35;;;;;;;;;;5034324;28;20123;-42
2021/06/29 04:55:14;;;;;;;4.47;3.28;;;;;;;;;;5035601;28;20025;-42
2021/06/29 04:57:40;;;;;;;5.05;2.92;;;;;;;;;;5035577;28;20022;-44
2021/06/29 05:00:09;;;;;;;4.63;3.10;;;;;;;;;;5035297;28;20041;-44
2021/06/29 05:02:35;;;;;;;7.07;3.35;;;;;;;;;;5035367;28;20539;-41
2021/06/29 05:05:02;;;;;;;4.80;3.20;;;;;;;;;;5035341;28;20034;-43
2021/06/29 05:07:29;;;;;;;3.92;3.28;;;;;;;;;;5035247;28;20075;-41
2021/06/29 05:09:55;;;;;;;3.60;2.80;;;;;;;;;;5035154;28;20096;-41
2021/06/29 05:12:21;;;;;;;4.60;3.40;;;;;;;;;;5035156;28;20488;-43
2021/06/29 05:14:47;;;;;;;8.50;4.13;;;;;;;;;;5035277;28;20054;-42
2021/06/29 05:17:13;;;;;;;4.57;3.60;;;;;;;;;;5035253;28;20022;-43
2021/06/29 05:19:39;;;;;;;6.00;3.25;;;;;;;;;;5035117;28;20033;-41
2021/06/29 05:22:06;;;;;;;9.15;3.45;;;;;;;;;;5035216;28;20053;-45
2021/06/29 05:24:32;;;;;;;5.28;3.70;;;;;;;;;;5034943;28;20055;-42
2021/06/29 05:26:58;;;;;;;6.75;3.25;;;;;;;;;;5035179;28;20424;-45
2021/06/29 05:29:24;;;;;;;10.18;3.60;;;;;;;;;;5034817;28;20116;-45
2021/06/29 05:31:50;;;;;;;7.65;3.45;;;;;;;;;;5034995;28;20024;-41
2021/06/29 05:34:16;;;;;;;4.78;3.30;;;;;;;;;;5034765;28;20452;-44
2021/06/29 05:36:43;;;;;;;9.15;3.75;;;;;;;;;;5034760;28;20029;-44
2021/06/29 05:39:09;;;;;;;9.32;4.18;;;;;;;;;;5034571;28;20027;-44
2021/06/29 05:41:35;;;;;;;6.05;3.35;;;;;;;;;;5034864;28;20087;-44
2021/06/29 05:44:01;;;;;;;6.05;3.70;;;;;;;;;;5034416;28;20032;-43
2021/06/29 05:46:28;;;;;;;6.65;3.75;;;;;;;;;;5034513;28;20105;-44
2021/06/29 05:48:54;;;;;;;6.65;3.40;;;;;;;;;;5034406;28;20034;-44
2021/06/29 05:51:21;;;;;;;6.03;3.53;;;;;;;;;;5034666;28;20032;-44
2021/06/29 05:53:47;;;;;;;5.03;3.40;;;;;;;;;;5034683;28;20025;-45
2021/06/29 05:56:13;;;;;;;6.28;3.50;;;;;;;;;;5034644;28;20017;-41
2021/06/29 05:58:40;;;;;;;4.72;3.47;;;;;;;;;;5034276;28;20026;-44
2021/06/29 06:01:07;;;;;;;5.70;3.47;;;;;;;;;;5034482;28;20025;-44
2021/06/29 06:03:33;;;;;;;5.63;3.22;;;;;;;;;;5034503;28;20163;-43
2021/06/29 06:05:59;;;;;;;3.83;3.03;;;;;;;;;;5034348;28;20026;-44
2021/06/29 06:08:25;;;;;;;5.28;3.38;;;;;;;;;;5034216;28;20026;-41
2021/06/29 06:10:53;;;;;;;6.75;3.63;;;;;;;;;;5033108;28;20466;-45
2021/06/29 06:13:19;;;;;;;8.10;3.20;;;;;;;;;;5033408;28;20034;-42
2021/06/29 06:15:46;;;;;;;5.07;3.30;;;;;;;;;;5034190;28;20030;-42
2021/06/29 06:18:12;;;;;;;5.93;3.58;;;;;;;;;;5034124;28;20032;-41
2021/06/29 06:20:39;;;;;;;6.03;3.47;;;;;;;;;;5034028;28;20061;-40
2021/06/29 06:23:05;;;;;;;4.97;3.00;;;;;;;;;;5034098;28;20053;-41
2021/06/29 06:25:32;;;;;;;6.32;3.40;;;;;;;;;;5033961;28;20025;-44
2021/06/29 06:27:58;;;;;;;5.95;3.42;;;;;;;;;;5033593;28;20022;-43
2021/06/29 06:30:24;;;;;;;5.45;3.15;;;;;;;;;;5033815;28;20025;-41
2021/06/29 06:32:51;;;;;;;13.15;3.55;;;;;;;;;;5033663;28;20422;-41
2021/06/29 06:35:17;;;;;;;8.13;3.35;;;;;;;;;;5033775;28;20096;-42
2021/06/29 06:37:43;;;;;;;9.95;3.13;;;;;;;;;;5033770;28;20470;-42
2021/06/29 06:40:10;;;;;;;6.07;3.33;;;;;;;;;;5033674;28;20033;-44
2021/06/29 06:42:37;;;;;;;4.57;3.25;;;;;;;;;;5033375;28;20474;-43
2021/06/29 06:45:03;;;;;;;8.13;3.65;;;;;;;;;;5033556;28;20083;-41
2021/06/29 06:47:30;;;;;;;7.47;3.35;;;;;;;;;;5033609;28;20477;-42
2021/06/29 06:49:56;;;;;;;4.47;3.22;;;;;;;;;;5033774;28;20394;-44
2021/06/29 06:52:22;;;;;;;2.85;2.55;;;;;;;;;;5033568;28;20501;-43
2021/06/29 06:54:48;;;;;;;8.57;5.43;;;;;;;;;;5033373;28;20033;-42
2021/06/29 06:57:14;;;;;;;8.32;4.65;;;;;;;;;;5033536;28;20025;-43
2021/06/29 06:59:40;;;;;;;6.65;3.13;;;;;;;;;;5033362;28;20033;-40
2021/06/29 07:02:06;;;;;;;4.00;2.90;;;;;;;;;;5033661;28;20025;-43
2021/06/29 07:04:32;;;;;;;3.72;3.05;;;;;;;;;;5033343;28;20060;-43
2021/06/29 07:06:58;;;;;;;4.60;2.90;;;;;;;;;;5033307;28;20030;-42
2021/06/29 07:09:25;;;;;;;4.47;3.00;;;;;;;;;;5033333;28;20037;-43
2021/06/29 07:11:51;;;;;;;3.40;3.10;;;;;;;;;;5033230;28;20033;-43
2021/06/29 07:14:17;;;;;;;5.00;2.80;;;;;;;;;;5032853;28;20058;-42
2021/06/29 07:16:44;;;;;;;4.10;2.70;;;;;;;;;;5033099;28;20029;-41
2021/06/29 07:19:10;;;;;;;5.25;3.13;;;;;;;;;;5033268;28;20026;-43
2021/06/29 07:21:36;;;;;;;3.65;3.00;;;;;;;;;;5033062;28;20022;-42
2021/06/29 07:24:03;;;;;;;4.00;3.35;;;;;;;;;;5034094;28;20037;-43
2021/06/29 07:26:29;;;;;;;8.02;2.80;;;;;;;;;;5037148;28;20025;-43
2021/06/29 07:28:55;;;;;;;6.50;3.83;;;;;;;;;;5036992;28;20033;-43
2021/06/29 07:31:21;;;;;;;7.25;3.10;;;;;;;;;;5037174;28;20033;-43
2021/06/29 07:33:48;;;;;;;5.47;4.00;;;;;;;;;;5037135;28;20026;-42
2021/06/29 07:36:15;;;;;;;4.07;3.05;;;;;;;;;;5037134;28;20030;-43
2021/06/29 07:38:42;;;;;;;5.15;3.10;;;;;;;;;;5036872;28;20025;-43
2021/06/29 07:41:08;;;;;;;3.92;2.95;;;;;;;;;;5036875;28;20417;-41
2021/06/29 07:43:34;;;;;;;5.97;3.15;;;;;;;;;;5036560;28;20040;-41
2021/06/29 07:46:00;;;;;;;6.70;2.97;;;;;;;;;;5036620;28;20026;-43
2021/06/29 07:48:27;;;;;;;5.65;3.55;;;;;;;;;;5036594;28;20078;-42
2021/06/29 07:50:54;;;;;;;5.47;3.13;;;;;;;;;;5036559;28;20025;-42
2021/06/29 07:53:20;;;;;;;9.25;3.55;;;;;;;;;;5036671;28;20086;-43
2021/06/29 07:55:46;;;;;;;5.80;3.30;;;;;;;;;;5035444;28;20363;-42
2021/06/29 07:58:13;;;;;;;5.07;3.10;;;;;;;;;;5036581;28;20025;-43
2021/06/29 08:00:39;;;;;;;6.88;3.08;;;;;;;;;;5036453;28;20030;-43
2021/06/29 08:03:05;;;;;;;3.50;3.20;;;;;;;;;;5036547;28;20156;-39
2021/06/29 08:05:31;;;;;;;5.80;2.95;;;;;;;;;;5036476;28;20033;-43
2021/06/29 08:07:57;;;;;;;10.63;3.30;;;;;;;;;;5036267;28;20028;-39
2021/06/29 08:10:23;;;;;;;6.03;3.45;;;;;;;;;;5036195;28;20029;-40
2021/06/29 08:12:50;;;;;;;5.40;4.00;;;;;;;;;;5036051;28;20036;-39
2021/06/29 08:15:18;;;;;;;10.48;3.80;;;;;;;;;;5036170;28;20055;-44
2021/06/29 08:17:45;;;;;;;10.27;2.65;;;;;;;;;;5036080;28;20107;-40
2021/06/29 08:20:12;;;;;;;4.78;3.30;;;;;;;;;;5036168;28;20167;-44
2021/06/29 08:22:38;;;;;;;12.15;8.13;;;;;;;;;;5036036;28;20385;-44
2021/06/29 08:25:08;;;;;;;4.60;3.72;;;;;;;;;;5036003;28;20021;-43
2021/06/29 08:27:34;;;;;;;4.53;3.50;;;;;;;;;;5035771;28;20100;-43
2021/06/29 08:30:01;;;;;;;3.55;3.20;;;;;;;;;;5035788;28;20048;-43
2021/06/29 08:32:27;;;;;;;5.25;3.72;;;;;;;;;;5043748;28;20481;-43
2021/06/29 08:34:54;;;;;;;9.80;3.67;;;;;;;;;;5054691;28;20056;-42
2021/06/29 08:37:23;;;;;;;4.40;3.30;;;;;;;;;;5055225;28;20481;-43
2021/06/29 08:39:50;;;;;;;6.47;3.40;;;;;;;;;;5055145;28;20033;-43
2021/06/29 08:42:20;;;;;;;3.72;3.42;;;;;;;;;;5055198;28;20488;-43
2021/06/29 08:44:46;;;;;;;4.35;3.50;;;;;;;;;;5055004;28;20040;-42
2021/06/29 08:47:12;;;;;;;10.38;3.25;;;;;;;;;;5054965;28;20466;-42
2021/06/29 08:49:38;;;;;;;4.00;3.40;;;;;;;;;;5055018;28;20033;-43
2021/06/29 08:52:05;;;;;;;3.45;3.15;;;;;;;;;;5053751;28;20025;-42
2021/06/29 08:54:32;;;;;;;5.85;3.50;;;;;;;;;;5054571;28;20048;-42
2021/06/29 08:56:58;;;;;;;5.50;3.50;;;;;;;;;;5054860;28;20025;-41
2021/06/29 08:59:24;;;;;;;7.82;3.90;;;;;;;;;;5054874;28;20366;-42
2021/06/29 09:01:51;;;;;;;7.63;3.83;;;;;;;;;;5054794;28;20013;-43
2021/06/29 09:04:36;;;;;;;4.68;3.83;;;;;;;;;;5054677;28;20488;-43
2021/06/29 09:07:15;;;;;;;5.55;3.50;;;;;;;;;;5053821;28;20029;-42
2021/06/29 09:09:46;;;;;;;4.15;3.75;;;;;;;;;;5053407;28;20036;-43
2021/06/29 09:12:13;;;;;;;5.28;3.60;;;;;;;;;;5052460;28;20488;-42
2021/06/29 09:14:39;;;;;;;4.57;3.42;;;;;;;;;;5054159;28;20474;-43
2021/06/29 09:17:22;;;;;;;3.60;3.25;;;;;;;;;;5054438;28;20017;-42
2021/06/29 09:19:48;;;;;;;6.63;3.65;;;;;;;;;;5054241;28;20031;-42
2021/06/29 09:22:28;;;;;;;3.42;3.00;;;;;;;;;;5054584;28;20362;-42
2021/06/29 09:24:55;;;;;;;4.57;3.35;;;;;;;;;;5054218;28;20481;-43
2021/06/29 09:27:39;;;;;;;8.35;3.60;;;;;;;;;;5054322;28;20013;-43
2021/06/29 09:30:09;;;;;;;5.75;3.53;;;;;;;;;;5052853;28;20029;-42
2021/06/29 09:32:35;;;;;;;6.72;4.22;;;;;;;;;;5051498;28;20525;-45
2021/06/29 09:35:06;;;;;;;24.40;13.35;;;;;;;;;;5054130;28;20101;-44
2021/06/29 09:37:36;;;;;;;7.03;4.13;;;;;;;;;;5054039;28;20017;-41
2021/06/29 09:40:19;;;;;;;5.50;4.35;;;;;;;;;;5053928;28;20029;-41
2021/06/29 09:42:45;;;;;;;4.40;3.60;;;;;;;;;;5053610;28;20066;-41
2021/06/29 09:45:30;;;;;;;9.30;4.85;;;;;;;;;;5053903;28;20021;-43
2021/06/29 09:47:56;;;;;;;6.50;3.72;;;;;;;;;;5051541;28;20029;-42
2021/06/29 09:50:34;;;;;;;6.00;3.55;;;;;;;;;;5069091;28;20029;-43
2021/06/29 09:53:10;;;;;;;4.70;4.20;;;;;;;;;;5074251;28;20063;-43
2021/06/29 09:55:41;;;;;;;8.15;3.92;;;;;;;;;;5074285;28;20032;-42
2021/06/29 09:58:16;;;;;;;10.57;3.92;;;;;;;;;;5074175;28;20507;-42
2021/06/29 10:00:58;;;;;;;9.07;3.85;;;;;;;;;;5074042;28;20031;-43
2021/06/29 10:03:26;;;;;;;4.05;3.65;;;;;;;;;;5073950;28;20024;-41
2021/06/29 10:05:55;;;;;;;4.43;3.90;;;;;;;;;;5073692;28;20111;-42
2021/06/29 10:08:32;;;;;;;5.17;3.50;;;;;;;;;;5073771;28;20029;-43
2021/06/29 10:11:08;;;;;;;5.25;4.03;;;;;;;;;;5073895;28;20241;-41
2021/06/29 10:13:39;;;;;;;7.15;4.20;;;;;;;;;;5073324;28;20035;-42
2021/06/29 10:16:06;;;;;;;7.13;4.22;;;;;;;;;;5073679;28;20030;-41
2021/06/29 10:18:37;;;;;;;6.32;4.10;;;;;;;;;;5073111;28;20117;-42
2021/06/29 10:21:14;;;;;;;6.53;4.18;;;;;;;;;;5073701;28;20021;-41
2021/06/29 10:23:41;;;;;;;7.20;4.25;;;;;;;;;;5073640;28;20024;-42
2021/06/29 10:26:08;;;;;;;11.45;4.47;;;;;;;;;;5073569;28;20495;-42
2021/06/29 10:28:34;;;;;;;7.13;4.55;;;;;;;;;;5073312;28;20036;-41
2021/06/29 10:31:01;;;;;;;5.72;3.92;;;;;;;;;;5073391;28;20484;-43
2021/06/29 10:33:28;;;;;;;6.47;4.30;;;;;;;;;;5073541;28;20028;-42
2021/06/29 10:35:54;;;;;;;5.53;4.80;;;;;;;;;;5073320;28;20119;-41
2021/06/29 10:38:21;;;;;;;5.22;3.92;;;;;;;;;;5073530;28;20032;-42
2021/06/29 10:40:51;;;;;;;6.90;4.22;;;;;;;;;;5073411;28;20469;-42
2021/06/29 10:43:17;;;;;;;;;;;;;;;;;;5073607;28;20119;-41
2021/06/29 10:45:43;;;;;;;7.10;4.43;;;;;;;;;;5073217;28;19948;-43
2021/06/29 10:48:16;;;;;;;8.25;5.00;;;;;;;;;;5070192;28;20032;-43
2021/06/29 10:50:43;;;;;;;6.47;4.15;;;;;;;;;;5073329;28;20020;-42
2021/06/29 10:53:27;;;;;;;7.60;4.50;;;;;;;;;;5073201;28;20024;-42
2021/06/29 10:55:53;;;;;;;5.30;4.85;;;;;;;;;;5073323;28;20060;-41
2021/06/29 10:58:34;;;;;;;5.13;4.60;;;;;;;;;;5072682;28;20028;-44
2021/06/29 11:01:18;;;;;;;6.95;4.82;;;;;;;;;;5073161;28;20032;-43
2021/06/29 11:03:45;;;;;;;6.93;4.43;;;;;;;;;;5072965;28;20028;-43
2021/06/29 11:06:11;;;;;;;5.78;4.82;;;;;;;;;;5073123;28;20034;-43
2021/06/29 11:08:47;;;;;;;7.32;5.38;;;;;;;;;;5073070;28;20484;-41
2021/06/29 11:11:14;;;;;;;6.13;4.85;;;;;;;;;;5073048;28;20484;-44
2021/06/29 11:13:44;;;;;;;5.82;4.20;;;;;;;;;;5072697;28;20032;-42
2021/06/29 11:16:11;;;;;;;7.38;4.72;;;;;;;;;;5073067;28;20107;-43
2021/06/29 11:18:37;;;;;;;6.32;4.45;;;;;;;;;;5072621;28;20032;-43
2021/06/29 11:21:05;;;;;;;4.93;4.45;;;;;;;;;;5073012;28;20020;-43
2021/06/29 11:23:32;;;;;;;5.38;4.40;;;;;;;;;;5072892;28;20024;-44
2021/06/29 11:26:00;;;;;;;5.60;4.70;;;;;;;;;;5072891;28;20063;-43
2021/06/29 11:28:26;;;;;;;4.63;4.00;;;;;;;;;;5072785;28;20485;-45
2021/06/29 11:31:10;;;;;;;7.40;4.30;;;;;;;;;;5072900;28;20064;-42
2021/06/29 11:33:36;;;;;;;4.90;4.35;;;;;;;;;;5072858;28;20028;-41
2021/06/29 11:36:05;;;;;;;5.93;4.57;;;;;;;;;;5072721;28;20020;-42
2021/06/29 11:38:39;;;;;;;5.60;4.03;;;;;;;;;;5073135;28;20401;-44
2021/06/29 11:41:23;;;;;;;8.55;6.00;;;;;;;;;;5072860;28;20025;-44
2021/06/29 11:43:49;;;;;;;10.18;5.20;;;;;;;;;;5072638;28;20453;-43
2021/06/29 11:46:34;;;;;;;7.30;5.60;;;;;;;;;;5072661;28;20020;-45
2021/06/29 11:49:09;;;;;;;4.93;4.40;;;;;;;;;;5072452;28;20389;-45
2021/06/29 11:51:48;;;;;;;4.82;4.40;;;;;;;;;;5072573;28;20484;-44
2021/06/29 11:54:32;;;;;;;14.45;11.80;;;;;;;;;;5072712;28;20028;-43
2021/06/29 11:57:02;;;;;;;7.88;4.53;;;;;;;;;;5072508;28;20512;-45
2021/06/29 11:59:32;;;;;;;5.20;4.70;;;;;;;;;;5072450;28;20021;-44
2021/06/29 12:02:02;;;;;;;4.57;4.18;;;;;;;;;;5072688;28;20032;-42
2021/06/29 12:04:28;;;;;;;6.43;4.80;;;;;;;;;;5072594;28;20365;-46
2021/06/29 12:07:01;;;;;;;5.68;4.72;;;;;;;;;;5072431;28;20029;-42
2021/06/29 12:09:31;;;;;;;5.10;4.60;;;;;;;;;;5072351;28;20038;-43
2021/06/29 12:12:17;;;;;;;4.85;4.38;;;;;;;;;;5076034;28;20021;-45
2021/06/29 12:14:43;;;;;;;11.93;9.05;;;;;;;;;;5075830;28;20161;-44
2021/06/29 12:17:09;;;;;;;9.98;6.72;;;;;;;;;;5075798;28;20028;-43
2021/06/29 12:19:35;;;;;;;6.30;5.20;;;;;;;;;;5036116;28;20473;-44
2021/06/29 12:22:02;;;;;;;6.40;5.90;;;;;;;;;;5036046;28;20028;-44
2021/06/29 12:24:28;;;;;;;8.52;7.35;;;;;;;;;;5036346;28;20466;-45
2021/06/29 12:26:54;;;;;;;7.68;6.88;;;;;;;;;;5035925;28;20036;-44
2021/06/29 12:29:37;;;;;;;7.25;6.60;;;;;;;;;;5035919;28;20496;-44
2021/06/29 12:32:15;;;;;;;7.43;6.65;;;;;;;;;;5051178;28;20120;-45
2021/06/29 12:34:41;;;;;;;7.53;6.40;;;;;;;;;;5035825;28;20557;-45
2021/06/29 12:37:08;;;;;;;6.90;6.20;;;;;;;;;;5035668;28;20458;-45
2021/06/29 12:39:34;;;;;;;9.65;7.93;;;;;;;;;;5035682;28;20068;-44
2021/06/29 12:42:00;;;;;;;9.40;6.75;;;;;;;;;;5035870;28;20022;-44
2021/06/29 12:44:27;;;;;;;11.55;8.43;;;;;;;;;;5035688;28;20087;-44
2021/06/29 12:46:53;;;;;;;9.88;8.98;;;;;;;;;;5035651;28;20032;-43
2021/06/29 12:49:24;;;;;;;8.95;7.28;;;;;;;;;;5071203;28;20040;-44
2021/06/29 12:51:56;;;;;;;7.53;6.35;;;;;;;;;;5075319;28;20032;-43
2021/06/29 12:54:24;;;;;;;7.68;6.75;;;;;;;;;;5075464;28;20025;-42
2021/06/29 12:56:52;;;;;;;7.28;6.68;;;;;;;;;;5075494;28;20062;-43
2021/06/29 12:59:41;;;;;;;8.00;7.20;;;;;;;;;;5075114;28;20354;-43
2021/06/29 13:02:11;;;;;;;8.35;7.55;;;;;;;;;;5053068;28;20533;-43
2021/06/29 13:04:43;;;;;;;8.60;7.70;;;;;;;;;;5053201;28;20042;-43
2021/06/29 13:07:10;;;;;;;8.50;7.65;;;;;;;;;;5052890;28;20025;-43
2021/06/29 13:09:40;;;;;;;10.35;9.35;;;;;;;;;;5052919;28;20091;-42
2021/06/29 13:12:14;;;;;;;11.27;9.57;;;;;;;;;;5052853;28;20521;-43
2021/06/29 13:14:51;;;;;;;8.93;8.13;;;;;;;;;;5052440;28;20064;-44
2021/06/29 13:17:17;;;;;;;9.68;7.85;;;;;;;;;;5052341;28;20040;-44
2021/06/29 13:19:43;;;;;;;8.00;7.30;;;;;;;;;;5052818;28;20037;-44
2021/06/29 13:22:11;;;;;;;8.82;7.82;;;;;;;;;;5051558;28;20029;-43
2021/06/29 13:24:41;;;;;;;8.80;7.75;;;;;;;;;;5052640;28;20175;-44
2021/06/29 13:27:08;;;;;;;;;;;;;;;;;;5053025;28;20041;-43
2021/06/29 13:29:35;;;;;;;9.48;8.20;;;;;;;;;;5051979;28;20323;-43
2021/06/29 13:32:02;;;;;;;11.07;8.52;;;;;;;;;;5052413;28;20033;-44
2021/06/29 13:34:30;;;;;;;8.85;8.05;;;;;;;;;;5052469;28;20040;-44
2021/06/29 13:36:56;;;;;;;8.60;7.80;;;;;;;;;;5052279;28;20025;-44
2021/06/29 13:39:25;;;;;;;8.80;7.20;;;;;;;;;;5065958;28;20036;-43
2021/06/29 13:41:52;;;;;;;10.02;7.28;;;;;;;;;;5074438;28;20401;-45
2021/06/29 13:44:18;;;;;;;9.80;7.40;;;;;;;;;;5074053;28;20032;-44
2021/06/29 13:46:44;;;;;;;8.52;7.68;;;;;;;;;;5074431;28;20095;-43
2021/06/29 13:49:17;;;;;;;8.02;7.22;;;;;;;;;;5073828;28;20485;-43
2021/06/29 13:51:43;;;;;;;9.82;7.90;;;;;;;;;;5073325;28;20036;-43
2021/06/29 13:54:15;;;;;;;8.65;7.63;;;;;;;;;;5074066;28;20024;-43
2021/06/29 13:56:41;;;;;;;9.50;7.43;;;;;;;;;;5074121;28;20080;-44
2021/06/29 13:59:07;;;;;;;8.32;7.53;;;;;;;;;;5072551;28;20516;-42
2021/06/29 14:01:34;;;;;;;8.63;7.85;;;;;;;;;;5073903;28;20029;-43
2021/06/29 14:04:04;;;;;;;9.30;8.40;;;;;;;;;;5074083;28;20070;-43
2021/06/29 14:06:31;;;;;;;9.27;8.35;;;;;;;;;;5073900;28;20028;-44
2021/06/29 14:09:15;;;;;;;10.57;9.38;;;;;;;;;;5073814;28;20457;-41
2021/06/29 14:11:42;;;;;;;8.70;7.88;;;;;;;;;;5073803;28;20023;-44
2021/06/29 14:14:12;;;;;;;8.50;7.80;;;;;;;;;;5072119;28;20072;-43
2021/06/29 14:16:38;;;;;;;9.77;8.88;;;;;;;;;;5073754;28;20067;-44
2021/06/29 14:19:04;;;;;;;10.35;8.93;;;;;;;;;;5073156;28;20044;-43
2021/06/29 14:21:33;;;;;;;12.18;8.05;;;;;;;;;;5073646;28;20063;-44
2021/06/29 14:24:00;;;;;;;9.48;8.27;;;;;;;;;;5073724;28;20025;-45
2021/06/29 14:26:27;;;;;;;9.70;7.50;;;;;;;;;;5073581;28;20051;-42
2021/06/29 14:28:53;;;;;;;8.13;7.40;;;;;;;;;;5073690;28;20040;-41
2021/06/29 14:31:20;;;;;;;10.65;7.30;;;;;;;;;;5073531;28;20024;-41
2021/06/29 14:33:46;;;;;;;8.70;7.90;;;;;;;;;;5071377;28;20028;-41
2021/06/29 14:36:17;;;;;;;11.48;7.65;;;;;;;;;;5073567;28;20056;-41
2021/06/29 14:38:44;;;;;;;10.35;8.02;;;;;;;;;;5073456;28;20032;-42
2021/06/29 14:41:10;;;;;;;11.52;10.43;;;;;;;;;;5073491;28;20108;-42
2021/06/29 14:43:37;;;;;;;10.13;9.07;;;;;;;;;;5073528;28;20051;-42
2021/06/29 14:46:04;;;;;;;12.48;9.57;;;;;;;;;;5071979;28;20040;-44
2021/06/29 14:48:30;;;;;;;349.05;258.48;;;;;;;;;;5073361;28;20032;-42
2021/06/29 14:50:56;;;;;;;455.42;308.13;;;;;;;;;;5073396;28;20020;-44